createdAt,value
2022-09-17T00:00:55.556Z,25.52
2022-09-17T00:01:57.434Z,25.48
2022-09-17T00:02:59.158Z,25.39
2022-09-17T00:04:04.728Z,25.49
2022-09-17T00:05:07.101Z,25.41
2022-09-17T00:06:11.873Z,25.49
2022-09-17T00:07:13.584Z,25.46
2022-09-17T00:08:15.495Z,25.45
2022-09-17T00:09:17.245Z,25.47
2022-09-17T00:10:20.573Z,25.45
2022-09-17T00:11:29.875Z,25.45
2022-09-17T00:12:32.251Z,25.46
2022-09-17T00:13:34.063Z,25.45
2022-09-17T00:14:35.993Z,25.39
2022-09-17T00:15:42.807Z,25.25
2022-09-17T00:16:47.907Z,25.40
2022-09-17T00:17:55.609Z,25.41
2022-09-17T00:18:58.659Z,25.43
2022-09-17T00:20:00.402Z,25.43
2022-09-17T00:21:03.435Z,25.41
2022-09-17T00:22:05.104Z,25.38
2022-09-17T00:23:08.554Z,25.39
2022-09-17T00:24:12.546Z,25.39
2022-09-17T00:25:14.332Z,25.39
2022-09-17T00:26:16.077Z,25.37
2022-09-17T00:27:17.854Z,25.37
2022-09-17T00:28:19.558Z,25.34
2022-09-17T00:29:21.338Z,25.36
2022-09-17T00:30:23.029Z,25.35
2022-09-17T00:31:26.057Z,25.34
2022-09-17T00:32:28.215Z,25.34
2022-09-17T00:33:29.881Z,25.33
2022-09-17T00:34:31.779Z,25.33
2022-09-17T00:35:33.594Z,25.33
2022-09-17T00:36:37.326Z,25.32
2022-09-17T00:37:38.995Z,25.32
2022-09-17T00:38:40.996Z,25.28
2022-09-17T00:39:42.758Z,25.31
2022-09-17T00:40:44.484Z,25.30
2022-09-17T00:41:46.212Z,25.29
2022-09-17T00:42:48.027Z,25.28
2022-09-17T00:43:58.128Z,25.29
2022-09-17T00:45:00.175Z,25.29
2022-09-17T00:46:03.702Z,25.28
2022-09-17T00:47:08.566Z,25.28
2022-09-17T00:48:11.621Z,25.27
2022-09-17T00:49:16.000Z,25.26
2022-09-17T00:50:23.004Z,25.25
2022-09-17T00:51:31.155Z,25.26
2022-09-17T00:52:41.415Z,25.20
2022-09-17T00:53:43.298Z,25.28
2022-09-17T00:54:49.815Z,25.26
2022-09-17T00:55:59.195Z,25.26
2022-09-17T00:57:00.892Z,25.26
2022-09-17T00:58:06.010Z,25.22
2022-09-17T00:59:08.599Z,25.23
2022-09-17T01:00:10.998Z,25.17
2022-09-17T01:01:12.755Z,25.21
2022-09-17T01:02:15.992Z,25.21
2022-09-17T01:03:17.899Z,25.21
2022-09-17T01:04:23.185Z,25.20
2022-09-17T01:05:44.651Z,25.20
2022-09-17T01:07:11.878Z,25.31
2022-09-17T01:08:30.123Z,25.30
2022-09-17T01:09:40.907Z,25.28
2022-09-17T01:10:51.599Z,25.26
2022-09-17T01:12:19.951Z,25.25
2022-09-17T01:13:52.167Z,25.28
2022-09-17T01:15:00.075Z,25.29
2022-09-17T01:16:34.091Z,25.26
2022-09-17T01:17:59.727Z,25.28
2022-09-17T01:19:40.598Z,25.30
2022-09-17T01:21:04.921Z,25.24
2022-09-17T01:22:19.987Z,25.28
2022-09-17T01:23:49.702Z,25.23
2022-09-17T01:25:21.087Z,25.28
2022-09-17T01:26:56.243Z,25.26
2022-09-17T01:28:33.658Z,25.29
2022-09-17T01:30:10.796Z,25.29
2022-09-17T01:31:21.909Z,25.24
2022-09-17T01:32:35.328Z,25.21
2022-09-17T01:33:44.365Z,25.16
2022-09-17T01:35:13.482Z,25.18
2022-09-17T01:36:39.936Z,25.18
2022-09-17T01:38:03.632Z,25.19
2022-09-17T01:39:24.718Z,25.16
2022-09-17T01:40:34.852Z,25.16
2022-09-17T01:41:56.257Z,25.15
2022-09-17T01:43:24.590Z,25.04
2022-09-17T01:44:42.905Z,25.18
2022-09-17T01:46:07.776Z,25.16
2022-09-17T01:47:20.699Z,25.12
2022-09-17T01:48:30.866Z,25.10
2022-09-17T01:49:39.243Z,25.09
2022-09-17T01:50:47.118Z,25.05
2022-09-17T01:51:51.019Z,25.05
2022-09-17T01:52:56.637Z,25.04
2022-09-17T01:54:15.117Z,25.04
2022-09-17T01:55:19.738Z,25.05
2022-09-17T01:56:30.675Z,24.99
2022-09-17T01:57:39.294Z,25.02
2022-09-17T01:58:48.637Z,25.03
2022-09-17T02:00:01.232Z,25.04
2022-09-17T02:01:07.443Z,25.03
2022-09-17T02:02:31.301Z,25.07
2022-09-17T02:03:42.445Z,25.07
2022-09-17T02:04:52.286Z,25.05
2022-09-17T02:06:03.261Z,25.02
2022-09-17T02:07:16.321Z,24.99
2022-09-17T02:08:25.499Z,24.98
2022-09-17T02:09:33.779Z,25.02
2022-09-17T02:10:41.503Z,25.02
2022-09-17T02:11:50.099Z,25.02
2022-09-17T02:12:59.015Z,25.02
2022-09-17T02:14:07.450Z,25.01
2022-09-17T02:15:18.774Z,24.95
2022-09-17T02:16:26.028Z,24.97
2022-09-17T02:17:35.240Z,25.01
2022-09-17T02:19:02.794Z,25.05
2022-09-17T02:20:06.880Z,25.04
2022-09-17T02:21:17.190Z,25.02
2022-09-17T02:22:25.965Z,24.99
2022-09-17T02:23:36.272Z,25.02
2022-09-17T02:24:55.448Z,24.99
2022-09-17T02:26:07.348Z,25.02
2022-09-17T02:27:28.327Z,25.00
2022-09-17T02:28:41.738Z,25.03
2022-09-17T02:29:44.805Z,25.01
2022-09-17T02:30:46.551Z,24.98
2022-09-17T02:31:48.343Z,24.96
2022-09-17T02:32:50.279Z,24.93
2022-09-17T02:33:57.318Z,24.91
2022-09-17T02:34:59.181Z,24.93
2022-09-17T02:36:01.754Z,24.93
2022-09-17T02:37:04.737Z,24.92
2022-09-17T02:38:07.334Z,24.88
2022-09-17T02:39:09.271Z,24.86
2022-09-17T02:40:14.177Z,24.85
2022-09-17T02:41:21.195Z,24.90
2022-09-17T02:42:49.867Z,24.95
2022-09-17T02:44:21.778Z,25.02
2022-09-17T02:45:56.710Z,25.01
2022-09-17T02:47:13.522Z,25.07
2022-09-17T02:48:49.208Z,25.04
2022-09-17T02:50:00.470Z,25.03
2022-09-17T02:51:11.284Z,25.01
2022-09-17T02:52:24.199Z,24.96
2022-09-17T02:54:05.445Z,25.03
2022-09-17T02:55:32.011Z,24.96
2022-09-17T02:56:46.627Z,25.03
2022-09-17T02:57:48.525Z,24.99
2022-09-17T02:59:11.883Z,24.97
2022-09-17T03:00:16.119Z,24.81
2022-09-17T03:01:44.877Z,24.98
2022-09-17T03:02:57.885Z,24.96
2022-09-17T03:04:02.759Z,24.93
2022-09-17T03:05:06.931Z,24.92
2022-09-17T03:06:08.844Z,24.89
2022-09-17T03:07:12.846Z,24.79
2022-09-17T03:08:15.070Z,24.79
2022-09-17T03:09:16.745Z,24.85
2022-09-17T03:10:19.987Z,24.79
2022-09-17T03:11:21.766Z,24.83
2022-09-17T03:12:24.868Z,24.80
2022-09-17T03:13:26.586Z,24.83
2022-09-17T03:14:28.561Z,24.82
2022-09-17T03:15:30.306Z,24.82
2022-09-17T03:16:32.557Z,24.82
2022-09-17T03:17:34.610Z,24.82
2022-09-17T03:18:36.391Z,24.81
2022-09-17T03:19:38.138Z,24.82
2022-09-17T03:20:39.821Z,24.81
2022-09-17T03:21:41.504Z,24.72
2022-09-17T03:22:43.451Z,24.78
2022-09-17T03:23:47.130Z,24.80
2022-09-17T03:24:48.928Z,24.75
2022-09-17T03:25:50.666Z,24.82
2022-09-17T03:26:52.954Z,24.81
2022-09-17T03:27:54.812Z,24.82
2022-09-17T03:28:56.743Z,24.81
2022-09-17T03:29:58.802Z,24.77
2022-09-17T03:31:00.538Z,24.81
2022-09-17T03:32:02.634Z,24.81
2022-09-17T03:33:04.423Z,24.80
2022-09-17T03:34:06.353Z,24.77
2022-09-17T03:35:08.406Z,24.75
2022-09-17T03:36:10.151Z,24.81
2022-09-17T03:37:11.823Z,24.81
2022-09-17T03:38:13.987Z,24.80
2022-09-17T03:39:15.686Z,24.81
2022-09-17T03:40:17.500Z,24.73
2022-09-17T03:41:19.375Z,24.79
2022-09-17T03:42:21.047Z,24.81
2022-09-17T03:43:22.785Z,24.78
2022-09-17T03:44:24.655Z,24.79
2022-09-17T03:45:26.400Z,24.76
2022-09-17T03:46:28.288Z,24.74
2022-09-17T03:47:30.517Z,24.79
2022-09-17T03:48:35.275Z,24.79
2022-09-17T03:49:37.016Z,24.80
2022-09-17T03:50:38.662Z,24.79
2022-09-17T03:51:40.403Z,24.79
2022-09-17T03:52:43.669Z,24.75
2022-09-17T03:53:45.517Z,24.78
2022-09-17T03:54:47.351Z,24.79
2022-09-17T03:55:49.043Z,24.79
2022-09-17T03:56:50.742Z,24.58
2022-09-17T03:57:52.494Z,24.79
2022-09-17T03:58:59.142Z,24.78
2022-09-17T04:00:01.038Z,24.78
2022-09-17T04:01:04.181Z,24.79
2022-09-17T04:02:06.308Z,24.74
2022-09-17T04:03:08.100Z,24.78
2022-09-17T04:04:09.861Z,24.77
2022-09-17T04:05:11.630Z,24.78
2022-09-17T04:06:13.368Z,24.78
2022-09-17T04:07:15.035Z,24.78
2022-09-17T04:08:17.016Z,24.73
2022-09-17T04:09:18.701Z,24.76
2022-09-17T04:10:20.475Z,24.73
2022-09-17T04:11:22.771Z,24.77
2022-09-17T04:12:24.558Z,24.77
2022-09-17T04:13:26.234Z,24.76
2022-09-17T04:14:27.970Z,24.77
2022-09-17T04:15:29.694Z,24.76
2022-09-17T04:16:31.523Z,24.76
2022-09-17T04:17:33.402Z,24.76
2022-09-17T04:18:35.185Z,24.77
2022-09-17T04:19:36.891Z,24.71
2022-09-17T04:20:39.951Z,24.76
2022-09-17T04:21:41.711Z,24.75
2022-09-17T04:22:43.451Z,24.76
2022-09-17T04:23:45.112Z,24.70
2022-09-17T04:24:46.871Z,24.75
2022-09-17T04:25:48.595Z,24.74
2022-09-17T04:26:50.233Z,24.75
2022-09-17T04:27:52.026Z,24.75
2022-09-17T04:28:53.787Z,24.74
2022-09-17T04:29:55.474Z,24.68
2022-09-17T04:30:57.807Z,24.71
2022-09-17T04:31:59.648Z,24.75
2022-09-17T04:33:01.381Z,24.75
2022-09-17T04:34:03.277Z,24.75
2022-09-17T04:35:05.428Z,24.75
2022-09-17T04:36:07.142Z,24.74
2022-09-17T04:37:08.878Z,24.74
2022-09-17T04:38:10.727Z,24.71
2022-09-17T04:39:12.562Z,24.75
2022-09-17T04:40:14.397Z,24.75
2022-09-17T04:41:16.215Z,24.74
2022-09-17T04:42:17.924Z,24.69
2022-09-17T04:43:19.703Z,24.75
2022-09-17T04:44:21.442Z,24.73
2022-09-17T04:45:23.857Z,24.69
2022-09-17T04:46:25.569Z,24.74
2022-09-17T04:47:27.377Z,24.73
2022-09-17T04:48:29.212Z,24.74
2022-09-17T04:49:31.207Z,24.73
2022-09-17T04:50:32.976Z,24.73
2022-09-17T04:51:34.998Z,24.74
2022-09-17T04:52:37.275Z,24.73
2022-09-17T04:53:38.959Z,24.74
2022-09-17T04:54:40.735Z,24.68
2022-09-17T04:55:43.087Z,24.73
2022-09-17T04:56:44.906Z,24.72
2022-09-17T04:57:51.236Z,24.66
2022-09-17T04:58:52.967Z,24.74
2022-09-17T04:59:54.719Z,24.72
2022-09-17T05:00:56.467Z,24.72
2022-09-17T05:01:58.498Z,24.68
2022-09-17T05:03:00.210Z,24.71
2022-09-17T05:04:02.439Z,24.71
2022-09-17T05:05:04.626Z,24.71
2022-09-17T05:06:06.574Z,24.71
2022-09-17T05:07:12.051Z,24.73
2022-09-17T05:08:15.581Z,24.73
2022-09-17T05:09:17.363Z,24.74
2022-09-17T05:10:20.826Z,24.72
2022-09-17T05:11:22.498Z,24.71
2022-09-17T05:12:24.199Z,24.63
2022-09-17T05:13:25.873Z,24.72
2022-09-17T05:14:27.571Z,24.72
2022-09-17T05:15:29.491Z,24.70
2022-09-17T05:16:31.285Z,24.71
2022-09-17T05:17:33.304Z,24.65
2022-09-17T05:18:34.995Z,24.71
2022-09-17T05:19:36.780Z,24.68
2022-09-17T05:20:38.866Z,24.65
2022-09-17T05:21:40.719Z,24.68
2022-09-17T05:22:47.804Z,24.69
2022-09-17T05:23:49.695Z,24.68
2022-09-17T05:24:51.466Z,24.70
2022-09-17T05:25:53.207Z,24.63
2022-09-17T05:26:55.067Z,24.70
2022-09-17T05:27:56.835Z,24.69
2022-09-17T05:28:58.601Z,24.70
2022-09-17T05:30:00.600Z,24.70
2022-09-17T05:31:02.757Z,24.69
2022-09-17T05:32:05.659Z,24.69
2022-09-17T05:33:07.392Z,24.70
2022-09-17T05:34:09.307Z,24.64
2022-09-17T05:35:11.495Z,24.69
2022-09-17T05:36:13.190Z,24.70
2022-09-17T05:37:14.945Z,24.69
2022-09-17T05:38:18.560Z,24.69
2022-09-17T05:39:22.800Z,24.69
2022-09-17T05:40:24.628Z,24.68
2022-09-17T05:41:26.406Z,24.69
2022-09-17T05:42:28.366Z,24.69
2022-09-17T05:43:30.016Z,24.67
2022-09-17T05:44:31.883Z,24.67
2022-09-17T05:45:34.789Z,24.67
2022-09-17T05:46:36.489Z,24.69
2022-09-17T05:47:38.234Z,24.69
2022-09-17T05:48:39.968Z,24.68
2022-09-17T05:49:41.833Z,24.68
2022-09-17T05:50:43.541Z,24.68
2022-09-17T05:51:45.328Z,24.68
2022-09-17T05:52:47.078Z,24.65
2022-09-17T05:53:49.067Z,24.68
2022-09-17T05:54:50.855Z,24.68
2022-09-17T05:55:57.295Z,24.68
2022-09-17T05:56:59.003Z,24.69
2022-09-17T05:58:01.517Z,24.65
2022-09-17T05:59:03.341Z,24.67
2022-09-17T06:00:06.117Z,24.69
2022-09-17T06:01:16.312Z,24.70
2022-09-17T06:02:18.380Z,24.63
2022-09-17T06:03:22.975Z,24.70
2022-09-17T06:04:24.878Z,24.70
2022-09-17T06:05:26.652Z,24.61
2022-09-17T06:06:29.771Z,24.68
2022-09-17T06:07:31.607Z,24.70
2022-09-17T06:08:35.425Z,24.69
2022-09-17T06:09:37.742Z,24.69
2022-09-17T06:10:39.836Z,24.65
2022-09-17T06:11:42.066Z,24.72
2022-09-17T06:12:43.806Z,24.74
2022-09-17T06:13:46.071Z,24.76
2022-09-17T06:14:47.965Z,24.72
2022-09-17T06:15:53.899Z,24.79
2022-09-17T06:16:56.189Z,24.82
2022-09-17T06:17:57.853Z,24.85
2022-09-17T06:18:59.772Z,24.88
2022-09-17T06:20:02.782Z,24.87
2022-09-17T06:21:05.702Z,24.90
2022-09-17T06:22:07.604Z,24.96
2022-09-17T06:23:11.691Z,24.99
2022-09-17T06:24:17.248Z,24.99
2022-09-17T06:25:18.975Z,25.07
2022-09-17T06:26:20.651Z,25.10
2022-09-17T06:27:22.448Z,25.12
2022-09-17T06:28:25.290Z,25.14
2022-09-17T06:29:27.825Z,25.19
2022-09-17T06:30:29.652Z,25.23
2022-09-17T06:31:31.538Z,25.22
2022-09-17T06:32:33.611Z,25.29
2022-09-17T06:33:36.515Z,25.28
2022-09-17T06:34:38.196Z,25.37
2022-09-17T06:35:40.039Z,25.39
2022-09-17T06:36:41.883Z,25.42
2022-09-17T06:37:43.595Z,25.46
2022-09-17T06:38:45.410Z,25.49
2022-09-17T06:39:47.629Z,25.52
2022-09-17T06:40:53.095Z,25.53
2022-09-17T06:41:54.855Z,25.54
2022-09-17T06:43:00.422Z,25.60
2022-09-17T06:44:02.577Z,25.63
2022-09-17T06:45:09.301Z,25.65
2022-09-17T06:46:12.345Z,25.69
2022-09-17T06:47:14.150Z,25.71
2022-09-17T06:48:15.843Z,25.71
2022-09-17T06:49:18.667Z,25.73
2022-09-17T06:50:20.683Z,25.75
2022-09-17T06:51:22.774Z,25.73
2022-09-17T06:52:24.535Z,25.78
2022-09-17T06:53:26.322Z,25.80
2022-09-17T06:54:28.012Z,25.78
2022-09-17T06:55:29.719Z,25.83
2022-09-17T06:56:34.378Z,25.85
2022-09-17T06:57:36.145Z,25.87
2022-09-17T06:58:38.666Z,25.84
2022-09-17T06:59:40.408Z,25.81
2022-09-17T07:00:42.820Z,25.90
2022-09-17T07:01:44.741Z,25.91
2022-09-17T07:02:56.515Z,25.93
2022-09-17T07:03:58.346Z,25.93
2022-09-17T07:05:00.168Z,25.96
2022-09-17T07:06:01.903Z,25.93
2022-09-17T07:07:05.266Z,25.92
2022-09-17T07:08:07.035Z,25.97
2022-09-17T07:09:11.106Z,25.98
2022-09-17T07:10:12.968Z,26.00
2022-09-17T07:11:16.086Z,25.99
2022-09-17T07:12:17.879Z,26.00
2022-09-17T07:13:19.551Z,26.00
2022-09-17T07:14:21.623Z,26.01
2022-09-17T07:15:23.617Z,26.01
2022-09-17T07:16:26.796Z,26.01
2022-09-17T07:17:29.758Z,26.02
2022-09-17T07:18:31.595Z,25.98
2022-09-17T07:19:33.279Z,26.05
2022-09-17T07:20:34.991Z,26.04
2022-09-17T07:21:36.759Z,26.05
2022-09-17T07:22:38.935Z,26.05
2022-09-17T07:23:40.831Z,26.05
2022-09-17T07:24:42.494Z,26.04
2022-09-17T07:25:44.262Z,26.00
2022-09-17T07:26:46.015Z,26.04
2022-09-17T07:27:47.691Z,26.06
2022-09-17T07:28:49.367Z,26.06
2022-09-17T07:29:51.090Z,26.07
2022-09-17T07:30:53.891Z,26.04
2022-09-17T07:31:55.799Z,26.07
2022-09-17T07:33:01.955Z,26.07
2022-09-17T07:34:03.804Z,26.10
2022-09-17T07:35:06.032Z,26.10
2022-09-17T07:36:11.771Z,26.08
2022-09-17T07:37:13.446Z,26.06
2022-09-17T07:38:15.251Z,26.09
2022-09-17T07:39:16.967Z,26.07
2022-09-17T07:40:18.765Z,26.11
2022-09-17T07:41:20.519Z,26.11
2022-09-17T07:42:22.190Z,26.11
2022-09-17T07:43:29.323Z,26.05
2022-09-17T07:44:31.535Z,26.13
2022-09-17T07:45:33.254Z,26.13
2022-09-17T07:46:34.977Z,26.10
2022-09-17T07:47:41.542Z,26.11
2022-09-17T07:48:43.580Z,26.04
2022-09-17T07:49:45.383Z,26.04
2022-09-17T07:50:47.873Z,26.13
2022-09-17T07:51:49.587Z,26.13
2022-09-17T07:52:51.883Z,26.13
2022-09-17T07:53:54.980Z,26.12
2022-09-17T07:54:56.672Z,26.14
2022-09-17T07:56:00.323Z,26.13
2022-09-17T07:57:02.126Z,26.09
2022-09-17T07:58:04.264Z,26.15
2022-09-17T07:59:06.073Z,26.07
2022-09-17T08:00:08.478Z,26.14
2022-09-17T08:01:16.917Z,26.16
2022-09-17T08:02:23.256Z,26.17
2022-09-17T08:03:25.726Z,26.16
2022-09-17T08:04:27.387Z,26.14
2022-09-17T08:05:29.091Z,26.13
2022-09-17T08:06:30.774Z,26.14
2022-09-17T08:07:32.522Z,26.11
2022-09-17T08:08:35.987Z,26.09
2022-09-17T08:09:37.793Z,26.14
2022-09-17T08:10:39.507Z,26.15
2022-09-17T08:11:55.754Z,26.16
2022-09-17T08:12:58.454Z,26.18
2022-09-17T08:14:00.301Z,26.14
2022-09-17T08:15:02.175Z,26.16
2022-09-17T08:16:09.887Z,26.14
2022-09-17T08:17:11.610Z,26.16
2022-09-17T08:18:16.487Z,26.14
2022-09-17T08:19:19.110Z,26.17
2022-09-17T08:20:21.319Z,26.15
2022-09-17T08:21:23.428Z,26.10
2022-09-17T08:22:25.200Z,26.16
2022-09-17T08:23:27.964Z,26.12
2022-09-17T08:24:29.862Z,26.14
2022-09-17T08:25:31.635Z,26.14
2022-09-17T08:26:33.394Z,26.15
2022-09-17T08:27:35.299Z,26.15
2022-09-17T08:28:37.094Z,26.13
2022-09-17T08:29:38.766Z,26.15
2022-09-17T08:30:40.426Z,26.15
2022-09-17T08:31:42.289Z,26.16
2022-09-17T08:32:44.009Z,26.16
2022-09-17T08:33:46.894Z,26.12
2022-09-17T08:34:48.768Z,26.18
2022-09-17T08:35:55.211Z,26.12
2022-09-17T08:36:57.286Z,26.21
2022-09-17T08:37:58.992Z,26.22
2022-09-17T08:39:01.062Z,26.16
2022-09-17T08:40:03.452Z,26.22
2022-09-17T08:41:14.615Z,26.23
2022-09-17T08:42:33.576Z,26.29
2022-09-17T08:43:38.074Z,26.30
2022-09-17T08:44:46.132Z,26.29
2022-09-17T08:45:55.650Z,26.30
2022-09-17T08:47:28.431Z,26.35
2022-09-17T08:48:41.079Z,26.36
2022-09-17T08:50:03.357Z,26.39
2022-09-17T08:51:55.940Z,26.47
2022-09-17T08:53:18.470Z,26.45
2022-09-17T08:54:35.499Z,26.46
2022-09-17T08:56:11.798Z,26.48
2022-09-17T08:57:57.277Z,26.52
2022-09-17T08:59:21.820Z,26.50
2022-09-17T09:00:24.771Z,26.45
2022-09-17T09:02:00.889Z,26.42
2022-09-17T09:03:21.466Z,26.44
2022-09-17T09:04:58.604Z,26.47
2022-09-17T09:06:02.150Z,26.47
2022-09-17T09:07:19.142Z,26.42
2022-09-17T09:08:43.325Z,26.41
2022-09-17T09:09:51.862Z,26.42
2022-09-17T09:10:57.046Z,26.37
2022-09-17T09:12:06.061Z,26.33
2022-09-17T09:13:08.176Z,26.39
2022-09-17T09:14:09.831Z,26.37
2022-09-17T09:15:32.128Z,26.35
2022-09-17T09:16:37.943Z,26.39
2022-09-17T09:17:44.465Z,26.38
2022-09-17T09:18:51.444Z,26.38
2022-09-17T09:19:54.529Z,26.39
2022-09-17T09:21:22.285Z,26.42
2022-09-17T09:22:47.222Z,26.44
2022-09-17T09:23:58.684Z,26.45
2022-09-17T09:25:25.719Z,26.49
2022-09-17T09:27:19.536Z,26.53
2022-09-17T09:28:38.153Z,26.52
2022-09-17T09:30:02.100Z,26.50
2022-09-17T09:31:34.538Z,26.50
2022-09-17T09:32:50.110Z,26.51
2022-09-17T09:33:52.658Z,26.49
2022-09-17T09:34:56.128Z,26.44
2022-09-17T09:35:58.853Z,26.42
2022-09-17T09:37:24.857Z,26.36
2022-09-17T09:38:43.374Z,26.44
2022-09-17T09:39:47.135Z,26.41
2022-09-17T09:41:12.314Z,26.45
2022-09-17T09:42:35.834Z,26.49
2022-09-17T09:44:04.772Z,26.48
2022-09-17T09:45:16.289Z,26.50
2022-09-17T09:46:51.800Z,26.49
2022-09-17T09:48:19.898Z,26.54
2022-09-17T09:49:36.675Z,26.51
2022-09-17T09:51:07.065Z,26.47
2022-09-17T09:52:21.118Z,26.50
2022-09-17T09:53:32.240Z,26.48
2022-09-17T09:54:45.842Z,26.46
2022-09-17T09:56:06.130Z,26.48
2022-09-17T09:57:13.015Z,26.45
2022-09-17T09:58:24.810Z,26.44
2022-09-17T09:59:27.101Z,26.42
2022-09-17T10:00:37.370Z,26.39
2022-09-17T10:01:42.849Z,26.41
2022-09-17T10:02:45.950Z,26.40
2022-09-17T10:03:51.964Z,26.39
2022-09-17T10:04:53.678Z,26.40
2022-09-17T10:06:07.626Z,26.35
2022-09-17T10:07:11.470Z,26.40
2022-09-17T10:08:14.853Z,26.40
2022-09-17T10:09:21.220Z,26.40
2022-09-17T10:10:23.167Z,26.41
2022-09-17T10:11:27.771Z,26.38
2022-09-17T10:12:29.476Z,26.41
2022-09-17T10:13:35.733Z,26.38
2022-09-17T10:14:39.271Z,26.41
2022-09-17T10:15:41.040Z,26.41
2022-09-17T10:16:42.760Z,26.37
2022-09-17T10:17:44.437Z,26.40
2022-09-17T10:18:48.088Z,26.40
2022-09-17T10:20:12.228Z,26.44
2022-09-17T10:21:31.900Z,26.50
2022-09-17T10:22:39.591Z,26.49
2022-09-17T10:23:43.903Z,26.47
2022-09-17T10:24:46.559Z,26.36
2022-09-17T10:25:49.132Z,26.45
2022-09-17T10:26:51.847Z,26.43
2022-09-17T10:27:53.717Z,26.43
2022-09-17T10:28:58.970Z,26.38
2022-09-17T10:30:14.293Z,26.44
2022-09-17T10:31:16.743Z,26.45
2022-09-17T10:32:21.053Z,26.38
2022-09-17T10:33:30.602Z,26.44
2022-09-17T10:34:33.787Z,26.34
2022-09-17T10:35:35.535Z,26.45
2022-09-17T10:36:43.578Z,26.42
2022-09-17T10:37:50.216Z,26.43
2022-09-17T10:38:51.891Z,26.45
2022-09-17T10:39:53.802Z,26.42
2022-09-17T10:41:10.645Z,26.45
2022-09-17T10:42:12.360Z,26.46
2022-09-17T10:43:17.873Z,26.45
2022-09-17T10:44:22.995Z,26.44
2022-09-17T10:45:30.077Z,26.43
2022-09-17T10:46:34.082Z,26.44
2022-09-17T10:47:43.942Z,26.44
2022-09-17T10:49:08.456Z,26.47
2022-09-17T10:50:25.076Z,26.51
2022-09-17T10:51:27.874Z,26.51
2022-09-17T10:52:42.547Z,26.47
2022-09-17T10:54:36.855Z,26.57
2022-09-17T10:55:43.123Z,26.54
2022-09-17T10:56:51.987Z,26.54
2022-09-17T10:58:07.412Z,26.54
2022-09-17T10:59:21.431Z,26.50
2022-09-17T11:00:24.682Z,26.53
2022-09-17T11:01:45.354Z,26.50
2022-09-17T11:03:20.478Z,26.56
2022-09-17T11:04:35.997Z,26.57
2022-09-17T11:05:43.618Z,26.57
2022-09-17T11:07:06.331Z,26.57
2022-09-17T11:08:29.666Z,26.60
2022-09-17T11:10:09.823Z,26.68
2022-09-17T11:11:18.947Z,26.64
2022-09-17T11:12:39.363Z,26.61
2022-09-17T11:14:04.717Z,26.63
2022-09-17T11:15:38.435Z,26.63
2022-09-17T11:16:57.794Z,26.65
2022-09-17T11:18:17.879Z,26.67
2022-09-17T11:19:27.205Z,26.65
2022-09-17T11:20:56.938Z,26.66
2022-09-17T11:22:17.732Z,26.67
2022-09-17T11:23:44.306Z,26.66
2022-09-17T11:25:23.226Z,26.72
2022-09-17T11:26:51.620Z,26.70
2022-09-17T11:28:19.635Z,26.77
2022-09-17T11:29:27.065Z,26.71
2022-09-17T11:30:39.414Z,26.62
2022-09-17T11:31:51.297Z,26.62
2022-09-17T11:33:27.666Z,26.71
2022-09-17T11:34:45.671Z,26.73
2022-09-17T11:35:52.802Z,26.61
2022-09-17T11:37:02.990Z,26.58
2022-09-17T11:38:17.724Z,26.69
2022-09-17T11:39:42.931Z,26.64
2022-09-17T11:40:59.670Z,26.67
2022-09-17T11:42:06.856Z,26.70
2022-09-17T11:43:11.395Z,26.71
2022-09-17T11:44:22.142Z,26.70
2022-09-17T11:45:34.950Z,26.71
2022-09-17T11:46:51.571Z,26.70
2022-09-17T11:48:00.107Z,26.74
2022-09-17T11:49:06.421Z,26.58
2022-09-17T11:50:27.931Z,26.67
2022-09-17T11:51:48.047Z,26.81
2022-09-17T11:53:06.491Z,26.82
2022-09-17T11:54:16.755Z,26.82
2022-09-17T11:55:23.784Z,26.77
2022-09-17T11:56:38.669Z,26.80
2022-09-17T11:57:42.465Z,26.77
2022-09-17T11:58:48.229Z,26.80
2022-09-17T12:00:14.407Z,26.82
2022-09-17T12:01:37.480Z,26.87
2022-09-17T12:02:52.477Z,26.88
2022-09-17T12:04:18.069Z,26.80
2022-09-17T12:05:28.675Z,26.87
2022-09-17T12:06:44.504Z,26.87
2022-09-17T12:07:50.509Z,26.87
2022-09-17T12:08:56.907Z,26.85
2022-09-17T12:10:18.849Z,26.87
2022-09-17T12:11:28.374Z,26.86
2022-09-17T12:12:48.896Z,26.87
2022-09-17T12:13:57.156Z,26.90
2022-09-17T12:15:13.831Z,26.89
2022-09-17T12:16:25.073Z,26.88
2022-09-17T12:17:37.063Z,26.89
2022-09-17T12:18:56.906Z,26.93
2022-09-17T12:20:08.900Z,26.90
2022-09-17T12:21:16.489Z,26.87
2022-09-17T12:22:24.043Z,26.88
2022-09-17T12:23:49.971Z,26.96
2022-09-17T12:24:53.101Z,26.81
2022-09-17T12:26:14.415Z,26.93
2022-09-17T12:27:39.116Z,26.94
2022-09-17T12:28:57.055Z,26.96
2022-09-17T12:30:22.775Z,27.00
2022-09-17T12:31:54.704Z,27.01
2022-09-17T12:33:13.971Z,27.00
2022-09-17T12:34:46.036Z,27.00
2022-09-17T12:36:21.100Z,27.02
2022-09-17T12:37:29.016Z,27.01
2022-09-17T12:38:48.597Z,26.98
2022-09-17T12:40:03.064Z,26.92
2022-09-17T12:41:43.346Z,26.96
2022-09-17T12:43:06.255Z,26.99
2022-09-17T12:44:17.358Z,27.00
2022-09-17T12:45:40.042Z,26.96
2022-09-17T12:46:53.742Z,26.93
2022-09-17T12:48:19.224Z,26.95
2022-09-17T12:49:38.840Z,26.97
2022-09-17T12:51:10.654Z,26.94
2022-09-17T12:52:21.087Z,26.98
2022-09-17T12:53:35.946Z,26.94
2022-09-17T12:55:06.250Z,26.93
2022-09-17T12:56:46.603Z,26.99
2022-09-17T12:58:04.631Z,26.99
2022-09-17T12:59:19.263Z,26.95
2022-09-17T13:00:21.599Z,26.90
2022-09-17T13:02:02.172Z,26.95
2022-09-17T13:03:29.745Z,26.97
2022-09-17T13:05:01.710Z,26.99
2022-09-17T13:06:34.641Z,27.00
2022-09-17T13:07:48.870Z,26.97
2022-09-17T13:09:01.091Z,26.94
2022-09-17T13:10:28.694Z,26.90
2022-09-17T13:11:55.124Z,26.93
2022-09-17T13:13:24.391Z,26.93
2022-09-17T13:14:51.927Z,26.92
2022-09-17T13:16:21.509Z,26.93
2022-09-17T13:18:23.002Z,26.93
2022-09-17T13:19:34.030Z,26.98
2022-09-17T13:20:53.026Z,26.92
2022-09-17T13:22:00.400Z,26.89
2022-09-17T13:23:02.244Z,26.86
2022-09-17T13:24:16.025Z,26.84
2022-09-17T13:25:20.213Z,26.81
2022-09-17T13:26:35.320Z,26.81
2022-09-17T13:27:38.728Z,26.84
2022-09-17T13:29:00.824Z,26.85
2022-09-17T13:30:03.840Z,26.84
2022-09-17T13:31:06.185Z,26.82
2022-09-17T13:32:08.032Z,26.81
2022-09-17T13:33:10.845Z,26.80
2022-09-17T13:34:29.854Z,26.80
2022-09-17T13:35:34.380Z,26.81
2022-09-17T13:36:40.835Z,26.79
2022-09-17T13:37:44.419Z,26.79
2022-09-17T13:38:47.339Z,26.79
2022-09-17T13:39:52.299Z,26.76
2022-09-17T13:41:21.776Z,26.81
2022-09-17T13:42:29.607Z,26.81
2022-09-17T13:43:31.314Z,26.82
2022-09-17T13:44:41.589Z,26.79
2022-09-17T13:46:01.248Z,26.83
2022-09-17T13:47:28.663Z,26.87
2022-09-17T13:48:32.842Z,26.84
2022-09-17T13:49:34.686Z,26.82
2022-09-17T13:50:41.538Z,26.78
2022-09-17T13:51:46.011Z,26.78
2022-09-17T13:52:51.107Z,26.73
2022-09-17T13:53:55.131Z,26.76
2022-09-17T13:54:56.983Z,26.78
2022-09-17T13:56:05.074Z,26.77
2022-09-17T13:57:13.763Z,26.78
2022-09-17T13:58:18.742Z,26.78
2022-09-17T13:59:27.883Z,26.78
2022-09-17T14:00:49.454Z,26.84
2022-09-17T14:02:31.037Z,26.84
2022-09-17T14:03:37.270Z,26.90
2022-09-17T14:04:41.729Z,26.86
2022-09-17T14:05:43.469Z,26.83
2022-09-17T14:06:53.892Z,26.80
2022-09-17T14:08:14.110Z,26.84
2022-09-17T14:09:39.064Z,26.87
2022-09-17T14:10:43.197Z,26.87
2022-09-17T14:11:44.888Z,26.85
2022-09-17T14:13:20.408Z,26.85
2022-09-17T14:14:28.070Z,26.89
2022-09-17T14:15:41.856Z,26.86
2022-09-17T14:16:43.532Z,26.87
2022-09-17T14:17:50.941Z,26.84
2022-09-17T14:18:59.108Z,26.78
2022-09-17T14:20:02.071Z,26.84
2022-09-17T14:21:12.608Z,26.83
2022-09-17T14:22:36.039Z,26.82
2022-09-17T14:23:46.751Z,26.87
2022-09-17T14:24:53.494Z,26.87
2022-09-17T14:25:56.896Z,26.84
2022-09-17T14:27:29.523Z,26.85
2022-09-17T14:28:45.055Z,26.89
2022-09-17T14:30:07.835Z,26.90
2022-09-17T14:31:18.119Z,26.79
2022-09-17T14:32:33.240Z,26.84
2022-09-17T14:33:34.986Z,26.85
2022-09-17T14:34:37.089Z,26.81
2022-09-17T14:35:44.444Z,26.73
2022-09-17T14:36:46.251Z,26.72
2022-09-17T14:37:56.389Z,26.75
2022-09-17T14:38:58.181Z,26.75
2022-09-17T14:40:00.020Z,26.77
2022-09-17T14:41:06.530Z,26.74
2022-09-17T14:42:18.640Z,26.76
2022-09-17T14:43:31.951Z,26.75
2022-09-17T14:44:35.519Z,26.72
2022-09-17T14:45:42.677Z,26.76